createdAt,value
2019-01-22T00:00:22.229Z,0.47
2019-01-22T00:05:31.397Z,0.65
2019-01-22T00:10:40.612Z,0.56
2019-01-22T00:15:49.446Z,0.45
2019-01-22T00:20:58.780Z,0.54
2019-01-22T00:26:08.043Z,0.43
2019-01-22T00:31:17.394Z,0.43
2019-01-22T00:36:26.597Z,0.45
2019-01-22T00:41:36.003Z,0.68
2019-01-22T00:46:45.209Z,0.58
2019-01-22T00:51:54.511Z,0.68
2019-01-22T00:57:03.807Z,0.70
2019-01-22T01:02:13.014Z,0.57
2019-01-22T01:07:22.431Z,0.32
2019-01-22T01:12:31.609Z,0.57
2019-01-22T01:17:40.970Z,0.43
2019-01-22T01:22:50.179Z,0.61
2019-01-22T01:27:59.576Z,0.57
2019-01-22T01:33:08.742Z,0.43
2019-01-22T01:38:17.975Z,0.74
2019-01-22T01:43:27.150Z,0.40
2019-01-22T01:48:36.438Z,0.57
2019-01-22T01:53:45.723Z,0.47
2019-01-22T01:58:55.079Z,0.42
2019-01-22T02:04:04.409Z,0.39
2019-01-22T02:09:13.682Z,0.58
2019-01-22T02:14:22.882Z,0.47
2019-01-22T02:19:32.160Z,0.48
2019-01-22T02:24:41.434Z,0.47
2019-01-22T02:29:50.824Z,0.48
2019-01-22T02:35:00.104Z,0.49
2019-01-22T02:40:09.386Z,0.46
2019-01-22T02:45:18.550Z,0.53
2019-01-22T02:50:27.791Z,0.59
2019-01-22T02:55:37.010Z,0.35
2019-01-22T03:00:46.278Z,0.44
2019-01-22T03:05:55.666Z,0.36
2019-01-22T03:11:04.940Z,0.32
2019-01-22T03:16:14.171Z,0.72
2019-01-22T03:21:23.511Z,0.49
2019-01-22T03:26:32.726Z,0.32
2019-01-22T03:31:42.020Z,0.45
2019-01-22T03:36:51.377Z,0.50
2019-01-22T03:42:00.925Z,0.37
2019-01-22T03:47:10.394Z,0.40
2019-01-22T03:52:19.620Z,0.43
2019-01-22T03:57:28.861Z,0.32
2019-01-22T04:02:38.207Z,0.50
2019-01-22T04:07:47.451Z,0.39
2019-01-22T04:12:56.906Z,0.33
2019-01-22T04:18:06.119Z,0.47
2019-01-22T04:23:15.578Z,0.34
2019-01-22T04:28:24.773Z,0.39
2019-01-22T04:33:34.042Z,0.42
2019-01-22T04:38:43.231Z,0.43
2019-01-22T04:43:52.594Z,0.40
2019-01-22T04:49:01.873Z,0.29
2019-01-22T04:54:11.354Z,0.35
2019-01-22T04:59:20.891Z,0.51
2019-01-22T05:04:29.450Z,0.48
2019-01-22T05:09:38.729Z,0.36
2019-01-22T05:14:48.071Z,0.33
2019-01-22T05:19:57.234Z,0.36
2019-01-22T05:25:06.566Z,0.43
2019-01-22T05:30:15.913Z,0.49
2019-01-22T05:35:25.200Z,0.79
2019-01-22T05:40:34.421Z,0.54
2019-01-22T05:45:43.752Z,0.46
2019-01-22T05:50:52.971Z,0.50
2019-01-22T05:56:02.174Z,0.39
2019-01-22T06:01:11.558Z,0.47
2019-01-22T06:06:20.883Z,0.45
2019-01-22T06:11:30.244Z,0.36
2019-01-22T06:16:39.398Z,0.45
2019-01-22T06:21:48.669Z,0.42
2019-01-22T06:26:58.008Z,0.46
2019-01-22T06:32:07.578Z,0.44
2019-01-22T06:37:16.908Z,0.46
2019-01-22T06:42:26.109Z,0.43
2019-01-22T06:47:35.388Z,0.96
2019-01-22T06:52:44.622Z,0.61
2019-01-22T06:57:53.809Z,0.37
2019-01-22T07:03:03.115Z,0.49
2019-01-22T07:08:12.331Z,0.60
2019-01-22T07:13:21.654Z,0.64
2019-01-22T07:18:30.911Z,0.41
2019-01-22T07:23:40.312Z,0.44
2019-01-22T07:28:49.547Z,0.62
2019-01-22T07:33:58.927Z,0.47
2019-01-22T07:39:08.256Z,0.54
2019-01-22T07:44:17.550Z,0.43
2019-01-22T07:49:26.827Z,0.71
2019-01-22T07:54:36.117Z,0.50
2019-01-22T07:59:45.526Z,0.56
2019-01-22T08:04:54.927Z,0.44
2019-01-22T08:10:04.237Z,0.56
2019-01-22T08:15:13.729Z,0.50
2019-01-22T08:20:23.067Z,0.86
2019-01-22T08:25:32.507Z,0.72
2019-01-22T08:30:41.889Z,0.57
2019-01-22T08:35:53.691Z,0.73
2019-01-22T08:40:53.693Z,0.51
2019-01-22T08:46:03.466Z,0.66
2019-01-22T08:51:07.014Z,0.89
2019-01-22T08:56:06.330Z,0.92
2019-01-22T09:01:23.127Z,0.70
2019-01-22T09:06:22.568Z,0.84
2019-01-22T09:11:34.664Z,0.72
2019-01-22T09:16:33.910Z,0.51
2019-01-22T09:21:43.275Z,0.48
2019-01-22T09:26:52.481Z,0.74
2019-01-22T09:32:01.797Z,0.64
2019-01-22T09:37:11.134Z,0.51
2019-01-22T09:42:20.526Z,0.51
2019-01-22T09:47:29.813Z,0.66
2019-01-22T09:52:48.278Z,0.91
2019-01-22T09:57:46.417Z,0.55
2019-01-22T10:02:55.854Z,0.87
2019-01-22T10:08:05.059Z,1.19
2019-01-22T10:13:14.450Z,1.07
2019-01-22T10:18:23.668Z,1.04
2019-01-22T10:23:32.927Z,0.88
2019-01-22T10:28:42.125Z,1.00
2019-01-22T10:33:51.427Z,1.24
2019-01-22T10:39:00.795Z,1.04
2019-01-22T10:44:10.155Z,1.17
2019-01-22T10:49:19.483Z,0.78
2019-01-22T10:54:28.775Z,0.82
2019-01-22T10:59:38.222Z,0.78
2019-01-22T11:04:47.499Z,0.76
2019-01-22T11:09:56.821Z,0.69
2019-01-22T11:15:06.166Z,0.97
2019-01-22T11:20:15.529Z,0.67
2019-01-22T11:25:24.978Z,0.77
2019-01-22T11:30:34.211Z,0.64
2019-01-22T11:35:43.562Z,1.00
2019-01-22T11:40:53.989Z,0.73
2019-01-22T11:46:01.690Z,0.90
2019-01-22T11:51:11.242Z,1.17
2019-01-22T11:56:20.450Z,0.86
2019-01-22T12:01:29.844Z,0.79
2019-01-22T12:06:39.078Z,0.66
2019-01-22T12:11:48.473Z,0.69
2019-01-22T12:17:01.556Z,0.72
2019-01-22T12:21:59.742Z,1.01
2019-01-22T12:27:10.172Z,0.57
2019-01-22T12:32:09.506Z,0.57
2019-01-22T12:37:18.821Z,0.53
2019-01-22T12:42:28.211Z,0.47
2019-01-22T12:47:37.421Z,0.55
2019-01-22T12:52:46.702Z,0.71
2019-01-22T12:57:56.271Z,0.67
2019-01-22T13:03:07.026Z,0.65
2019-01-22T13:08:10.646Z,0.76
2019-01-22T13:13:09.855Z,0.39
2019-01-22T13:18:19.217Z,0.42
2019-01-22T13:23:28.526Z,0.53
2019-01-22T13:28:37.942Z,0.62
2019-01-22T13:33:47.171Z,0.43
2019-01-22T13:38:56.667Z,0.44
2019-01-22T13:44:06.030Z,0.38
2019-01-22T13:49:16.384Z,0.36
2019-01-22T13:54:17.870Z,0.48
2019-01-22T13:59:17.403Z,0.35
2019-01-22T14:04:26.748Z,0.57
2019-01-22T14:09:36.343Z,0.66
2019-01-22T14:14:45.695Z,0.67
2019-01-22T14:19:55.009Z,0.35
2019-01-22T14:25:04.270Z,0.57
2019-01-22T14:30:14.999Z,0.32
2019-01-22T14:35:14.230Z,0.44
2019-01-22T14:40:23.517Z,0.46
2019-01-22T14:45:32.754Z,0.26
2019-01-22T14:50:42.126Z,0.27
2019-01-22T14:55:51.579Z,0.31
2019-01-22T15:01:00.924Z,0.30
2019-01-22T15:06:10.308Z,0.20
2019-01-22T15:11:19.600Z,0.38
2019-01-22T15:16:27.547Z,0.29
2019-01-22T15:21:36.977Z,0.25
2019-01-22T15:26:46.204Z,0.26
2019-01-22T15:31:55.567Z,0.26
2019-01-22T15:37:04.874Z,0.26
2019-01-22T15:42:12.767Z,0.27
2019-01-22T15:47:22.153Z,0.23
2019-01-22T15:52:31.486Z,0.26
2019-01-22T15:57:43.719Z,0.23
2019-01-22T16:02:43.025Z,0.20
2019-01-22T16:07:52.327Z,0.30
2019-01-22T16:13:01.666Z,0.24
2019-01-22T16:18:16.859Z,0.42
2019-01-22T16:23:16.291Z,0.32
2019-01-22T16:28:25.719Z,0.26
2019-01-22T16:33:35.182Z,0.26
2019-01-22T16:38:42.944Z,0.33
2019-01-22T16:43:52.233Z,0.27
2019-01-22T16:49:03.314Z,0.47
2019-01-22T16:54:01.560Z,0.23
2019-01-22T16:59:10.907Z,0.46
2019-01-22T17:04:20.395Z,0.37
2019-01-22T17:09:32.744Z,0.44
2019-01-22T17:14:37.084Z,0.48
2019-01-22T17:19:34.924Z,0.36
2019-01-22T17:24:44.265Z,0.35
2019-01-22T17:29:53.660Z,0.49
2019-01-22T17:35:03.345Z,0.62
2019-01-22T17:40:16.247Z,0.45
2019-01-22T17:45:21.589Z,0.55
2019-01-22T17:50:30.840Z,0.82
2019-01-22T17:55:40.281Z,0.44
2019-01-22T18:00:49.553Z,0.80
2019-01-22T18:05:57.424Z,0.65
2019-01-22T18:11:06.730Z,0.83
2019-01-22T18:16:18.954Z,0.45
2019-01-22T18:21:18.404Z,0.49
2019-01-22T18:26:28.473Z,0.31
2019-01-22T18:31:26.909Z,0.49
2019-01-22T18:36:36.786Z,0.43
2019-01-22T18:41:46.640Z,0.33
2019-01-22T18:46:56.646Z,0.48
2019-01-22T18:51:56.877Z,0.38
2019-01-22T18:57:05.158Z,0.55
2019-01-22T19:02:14.456Z,0.63
2019-01-22T19:07:23.766Z,0.58
2019-01-22T19:12:32.986Z,0.29
2019-01-22T19:17:42.385Z,0.57
2019-01-22T19:22:52.173Z,0.60
2019-01-22T19:28:01.414Z,0.51
2019-01-22T19:33:10.651Z,0.84
2019-01-22T19:38:19.883Z,0.56
2019-01-22T19:43:29.319Z,0.59
2019-01-22T19:48:38.748Z,0.59
2019-01-22T19:53:48.211Z,0.67
2019-01-22T19:58:58.693Z,0.50
2019-01-22T20:03:58.156Z,0.68
2019-01-22T20:09:07.677Z,0.47
2019-01-22T20:14:17.239Z,0.49
2019-01-22T20:19:26.600Z,0.41
2019-01-22T20:24:36.185Z,0.41
2019-01-22T20:30:20.623Z,0.61
2019-01-22T20:35:19.813Z,0.55
2019-01-22T20:40:29.199Z,0.54
2019-01-22T20:45:38.427Z,0.64
2019-01-22T20:50:47.727Z,0.56
2019-01-22T20:55:57.053Z,0.55
2019-01-22T21:01:06.394Z,0.54
2019-01-22T21:06:15.654Z,0.46
2019-01-22T21:11:24.994Z,0.47
2019-01-22T21:16:34.448Z,0.57
2019-01-22T21:21:43.794Z,0.47
2019-01-22T21:26:53.154Z,0.53
2019-01-22T21:32:02.381Z,0.46
2019-01-22T21:37:11.780Z,0.39
2019-01-22T21:42:21.087Z,0.38
2019-01-22T21:47:30.308Z,0.61
2019-01-22T21:52:39.604Z,0.43
2019-01-22T21:57:48.954Z,0.34
2019-01-22T22:02:58.202Z,0.47
2019-01-22T22:08:07.579Z,0.34
2019-01-22T22:13:16.907Z,0.32
2019-01-22T22:18:26.168Z,0.33
2019-01-22T22:23:35.383Z,0.48
2019-01-22T22:28:44.674Z,0.37
2019-01-22T22:33:53.899Z,0.66
2019-01-22T22:39:03.399Z,0.50
2019-01-22T22:44:12.718Z,0.47
2019-01-22T22:49:22.069Z,0.47
2019-01-22T22:54:31.316Z,0.34
2019-01-22T22:59:40.574Z,0.73
2019-01-22T23:04:49.786Z,0.47
2019-01-22T23:09:59.093Z,0.42
2019-01-22T23:15:08.550Z,0.31
2019-01-22T23:20:17.786Z,0.45
2019-01-22T23:25:27.153Z,0.37
2019-01-22T23:30:36.364Z,0.49
2019-01-22T23:35:46.061Z,0.47
2019-01-22T23:40:55.266Z,0.60
2019-01-22T23:46:04.527Z,0.65
2019-01-22T23:51:13.813Z,0.47
2019-01-22T23:56:23.162Z,0.61
